Aviation Digital Data Service (ADDS)

Output produced by METARs form (0413 UTC 18 January 2022)
found at http://www.aviationweather.gov/metar/data/
 
LHBP 180400Z 30013KT CAVOK M00/M05 Q1028 NOSIG
LHBP 180330Z 29010KT CAVOK M01/M05 Q1028 NOSIG
LHBP 180300Z 29011KT CAVOK M01/M05 Q1027 NOSIG
LHBP 180230Z 27008KT CAVOK M00/M05 Q1027 NOSIG
LHBP 180200Z 26007KT 210V310 CAVOK M00/M06 Q1027 NOSIG
LHBP 180130Z 30012KT CAVOK 01/M06 Q1027 NOSIG
TAF LHBP 172315Z 1800/1900 32015KT CAVOK 
     TEMPO 1800/1806 28007KT 
     TEMPO 1803/1809 FEW040 
     BECMG 1815/1817 31007KT 
     BECMG 1820/1822 VRB03KT
       
LHDC 180345Z AUTO 23003KT 9000 NCD M04/M05 Q1026
LHDC 180315Z AUTO 19004KT 9000 NCD M05/M05 Q1026
LHDC 180245Z AUTO VRB02KT CAVOK M04/M05 Q1026
LHDC 180215Z AUTO 20004KT CAVOK M03/M05 Q1026
LHDC 180145Z AUTO VRB02KT CAVOK M03/M05 Q1025
LHDC 180115Z AUTO 29005KT CAVOK M02/M05 Q1025
TAF LHDC 172015Z 1721/1806 34008KT CAVOK 
     PROB30 
     TEMPO 1721/1724 34015G25KT 
     BECMG 1800/1803 26006KT
       
LHKE 180345Z 30010KT CAVOK M03/M06 Q1028 NOSIG RMK BLU
LHKE 180315Z 29008KT CAVOK M01/M05 Q1028 NOSIG RMK BLU
LHKE 180245Z 29008KT CAVOK M01/M05 Q1028 NOSIG RMK BLU
LHKE 180215Z 29012KT CAVOK M00/M05 Q1027 NOSIG RMK BLU
LHKE 180145Z 29010KT CAVOK M01/M05 Q1027 NOSIG RMK BLU
LHKE 180115Z 29014KT CAVOK 00/M05 Q1027 NOSIG RMK BLU
TAF LHKE 172315Z 1800/1809 30011KT CAVOK 
     TEMPO 1800/1802 31011G21KT 
     TEMPO 1807/1809 31011G21KT
       
LHPA 180345Z 31008KT CAVOK M01/M04 Q1031 NOSIG RMK BLU
LHPA 180315Z 31008KT CAVOK M01/M04 Q1031 NOSIG RMK BLU
LHPA 180245Z 32010KT CAVOK M00/M04 Q1031 NOSIG RMK BLU
LHPA 180215Z 33010KT CAVOK 00/M04 Q1031 NOSIG RMK BLU
LHPA 180145Z 33012KT CAVOK 00/M04 Q1030 NOSIG RMK BLU
LHPA 180115Z 33012KT CAVOK 01/M04 Q1030 NOSIG RMK BLU
TAF LHPA 172315Z 1800/1824 33011KT CAVOK 
     TEMPO 1803/1807 33007KT 
     BECMG 1807/1809 33012G22KT 
     BECMG 1815/1817 33004KT
       
LHPP 180345Z AUTO 32015KT CAVOK 01/M04 Q1030
LHPP 180315Z AUTO 34016KT CAVOK 01/M04 Q1030
LHPP 180245Z AUTO 33014KT CAVOK 01/M03 Q1029
LHPP 180215Z AUTO 32012KT CAVOK 01/M03 Q1030
LHPP 180145Z AUTO 33011KT CAVOK 02/M03 Q1030
LHPP 180115Z AUTO 34016KT CAVOK 02/M03 Q1029
LHPR 180345Z AUTO 27010KT CAVOK M01/M03 Q1031
LHPR 180315Z AUTO 29012KT CAVOK M01/M03 Q1030
LHPR 180245Z AUTO 29010KT CAVOK M01/M03 Q1030
LHPR 180215Z AUTO 29009KT CAVOK M01/M04 Q1030
LHPR 180145Z AUTO 30010KT CAVOK M01/M03 Q1030
LHPR 180115Z AUTO 31010KT CAVOK 00/M03 Q1030
TAF LHPR 180215Z 1803/1812 31010KT CAVOK 
     TEMPO 1806/1812 31015G25KT 
     TEMPO 1810/1812 SCT025
       
LHSM 180345Z AUTO 02013KT 9000 NCD 02/M04 Q1032
LHSM 180315Z AUTO 02013KT 350V050 9000 NSC 02/M03 Q1031
LHSM 180245Z AUTO 01012KT 9000 NSC 02/M03 Q1031
LHSM 180215Z AUTO 02010KT 350V060 9000 NCD 02/M03 Q1031
LHSM 180145Z AUTO 02011KT 340V040 9000 NSC 02/M02 Q1031
LHSM 180115Z AUTO 03013KT 350V050 9000 NSC 03/M02 Q1031
LHSN 180345Z 28010KT CAVOK M00/M06 Q1027 NOSIG RMK BLU
LHSN 180315Z 27008KT CAVOK M00/M06 Q1027 NOSIG RMK BLU
LHSN 180245Z 27008KT CAVOK M00/M06 Q1027 NOSIG RMK BLU
LHSN 180215Z 27006KT CAVOK M00/M06 Q1027 NOSIG RMK BLU
LHSN 180145Z 26004KT CAVOK M01/M06 Q1026 NOSIG RMK BLU
LHSN 180115Z 27006KT CAVOK M01/M06 Q1026 NOSIG RMK BLU
TAF LHSN 172315Z 1800/1809 30009KT CAVOK 
     TEMPO 1800/1802 31011G21KT